sensor_id;sensor_type;location;lat;lon;timestamp;P1;durP1;ratioP1;P2;durP2;ratioP2
53253;SDS011;39148;53.332;6.922;2023-02-28T00:00:01;3.38;;;1.15;;
53253;SDS011;39148;53.332;6.922;2023-02-28T00:02:34;4.30;;;0.88;;
53253;SDS011;39148;53.332;6.922;2023-02-28T00:05:00;2.72;;;0.60;;
53253;SDS011;39148;53.332;6.922;2023-02-28T00:07:28;2.53;;;0.63;;
53253;SDS011;39148;53.332;6.922;2023-02-28T00:09:54;3.63;;;0.88;;
53253;SDS011;39148;53.332;6.922;2023-02-28T00:12:20;2.97;;;0.70;;
53253;SDS011;39148;53.332;6.922;2023-02-28T00:14:46;3.20;;;0.85;;
53253;SDS011;39148;53.332;6.922;2023-02-28T00:17:11;1.88;;;0.57;;
53253;SDS011;39148;53.332;6.922;2023-02-28T00:19:37;2.67;;;0.73;;
53253;SDS011;39148;53.332;6.922;2023-02-28T00:22:03;3.60;;;0.80;;
53253;SDS011;39148;53.332;6.922;2023-02-28T00:24:29;2.60;;;0.65;;
53253;SDS011;39148;53.332;6.922;2023-02-28T00:26:55;3.17;;;0.70;;
53253;SDS011;39148;53.332;6.922;2023-02-28T00:29:21;2.25;;;0.65;;
53253;SDS011;39148;53.332;6.922;2023-02-28T00:31:47;2.40;;;0.60;;
53253;SDS011;39148;53.332;6.922;2023-02-28T00:34:13;3.92;;;0.70;;
53253;SDS011;39148;53.332;6.922;2023-02-28T00:36:42;3.90;;;0.70;;
53253;SDS011;39148;53.332;6.922;2023-02-28T00:39:10;5.95;;;0.82;;
53253;SDS011;39148;53.332;6.922;2023-02-28T00:41:36;2.83;;;0.60;;
53253;SDS011;39148;53.332;6.922;2023-02-28T00:44:02;4.65;;;0.80;;
53253;SDS011;39148;53.332;6.922;2023-02-28T00:46:28;2.85;;;0.63;;
53253;SDS011;39148;53.332;6.922;2023-02-28T00:48:54;3.33;;;0.50;;
53253;SDS011;39148;53.332;6.922;2023-02-28T00:51:21;3.30;;;0.80;;
53253;SDS011;39148;53.332;6.922;2023-02-28T00:53:47;4.05;;;0.77;;
53253;SDS011;39148;53.332;6.922;2023-02-28T00:56:13;3.60;;;0.50;;
53253;SDS011;39148;53.332;6.922;2023-02-28T00:58:38;3.10;;;0.60;;
53253;SDS011;39148;53.332;6.922;2023-02-28T01:01:05;4.03;;;0.63;;
53253;SDS011;39148;53.332;6.922;2023-02-28T01:03:31;2.17;;;0.52;;
53253;SDS011;39148;53.332;6.922;2023-02-28T01:05:57;2.42;;;0.70;;
53253;SDS011;39148;53.332;6.922;2023-02-28T01:08:23;4.90;;;1.13;;
53253;SDS011;39148;53.332;6.922;2023-02-28T01:10:51;2.40;;;0.50;;
53253;SDS011;39148;53.332;6.922;2023-02-28T01:13:17;2.60;;;0.68;;
53253;SDS011;39148;53.332;6.922;2023-02-28T01:15:45;3.28;;;0.82;;
53253;SDS011;39148;53.332;6.922;2023-02-28T01:18:12;1.80;;;0.50;;
53253;SDS011;39148;53.332;6.922;2023-02-28T01:20:38;3.05;;;0.73;;
53253;SDS011;39148;53.332;6.922;2023-02-28T01:23:04;3.03;;;0.63;;
53253;SDS011;39148;53.332;6.922;2023-02-28T01:25:30;3.15;;;0.52;;
53253;SDS011;39148;53.332;6.922;2023-02-28T01:27:56;4.63;;;1.15;;
53253;SDS011;39148;53.332;6.922;2023-02-28T01:30:22;2.50;;;0.60;;
53253;SDS011;39148;53.332;6.922;2023-02-28T01:32:49;3.53;;;0.80;;
53253;SDS011;39148;53.332;6.922;2023-02-28T01:35:16;4.70;;;0.80;;
53253;SDS011;39148;53.332;6.922;2023-02-28T01:37:42;4.20;;;1.30;;
53253;SDS011;39148;53.332;6.922;2023-02-28T01:40:08;4.13;;;0.80;;
53253;SDS011;39148;53.332;6.922;2023-02-28T01:42:34;4.30;;;0.77;;
53253;SDS011;39148;53.332;6.922;2023-02-28T01:47:31;3.45;;;0.88;;
53253;SDS011;39148;53.332;6.922;2023-02-28T01:49:58;3.13;;;0.90;;
53253;SDS011;39148;53.332;6.922;2023-02-28T01:52:24;4.43;;;0.80;;
53253;SDS011;39148;53.332;6.922;2023-02-28T01:54:52;2.75;;;0.60;;
53253;SDS011;39148;53.332;6.922;2023-02-28T01:57:19;3.03;;;0.75;;
53253;SDS011;39148;53.332;6.922;2023-02-28T01:59:51;5.07;;;0.98;;
53253;SDS011;39148;53.332;6.922;2023-02-28T02:02:19;5.88;;;1.02;;
53253;SDS011;39148;53.332;6.922;2023-02-28T02:04:51;4.25;;;0.95;;
53253;SDS011;39148;53.332;6.922;2023-02-28T02:07:20;3.97;;;0.80;;
53253;SDS011;39148;53.332;6.922;2023-02-28T02:09:47;3.00;;;0.70;;
53253;SDS011;39148;53.332;6.922;2023-02-28T02:12:38;4.53;;;0.75;;
53253;SDS011;39148;53.332;6.922;2023-02-28T02:15:23;2.63;;;0.70;;
53253;SDS011;39148;53.332;6.922;2023-02-28T02:18:20;5.68;;;1.15;;
53253;SDS011;39148;53.332;6.922;2023-02-28T02:31:52;2.72;;;0.70;;
53253;SDS011;39148;53.332;6.922;2023-02-28T02:34:37;5.47;;;1.00;;
53253;SDS011;39148;53.332;6.922;2023-02-28T02:42:40;4.38;;;1.42;;
53253;SDS011;39148;53.332;6.922;2023-02-28T02:45:53;3.03;;;1.30;;
53253;SDS011;39148;53.332;6.922;2023-02-28T02:47:55;3.63;;;1.10;;
53253;SDS011;39148;53.332;6.922;2023-02-28T02:50:24;2.65;;;1.08;;
53253;SDS011;39148;53.332;6.922;2023-02-28T02:52:55;4.47;;;1.58;;
53253;SDS011;39148;53.332;6.922;2023-02-28T02:55:24;3.95;;;1.50;;
53253;SDS011;39148;53.332;6.922;2023-02-28T02:57:55;4.90;;;1.80;;
53253;SDS011;39148;53.332;6.922;2023-02-28T03:00:25;4.65;;;1.63;;
53253;SDS011;39148;53.332;6.922;2023-02-28T03:02:52;3.58;;;1.48;;
53253;SDS011;39148;53.332;6.922;2023-02-28T03:05:30;3.83;;;1.60;;
53253;SDS011;39148;53.332;6.922;2023-02-28T03:07:59;5.17;;;1.70;;
53253;SDS011;39148;53.332;6.922;2023-02-28T03:10:39;5.03;;;1.75;;
53253;SDS011;39148;53.332;6.922;2023-02-28T03:15:42;5.75;;;1.70;;
53253;SDS011;39148;53.332;6.922;2023-02-28T03:18:16;3.92;;;1.95;;
53253;SDS011;39148;53.332;6.922;2023-02-28T03:21:00;4.43;;;1.88;;
53253;SDS011;39148;53.332;6.922;2023-02-28T03:24:12;5.82;;;2.20;;
53253;SDS011;39148;53.332;6.922;2023-02-28T03:26:19;4.40;;;2.38;;
53253;SDS011;39148;53.332;6.922;2023-02-28T03:28:50;6.53;;;2.72;;
53253;SDS011;39148;53.332;6.922;2023-02-28T03:31:20;5.05;;;2.20;;
53253;SDS011;39148;53.332;6.922;2023-02-28T03:33:50;3.95;;;2.03;;
53253;SDS011;39148;53.332;6.922;2023-02-28T03:36:20;4.65;;;2.00;;
53253;SDS011;39148;53.332;6.922;2023-02-28T03:38:53;5.50;;;2.67;;
53253;SDS011;39148;53.332;6.922;2023-02-28T03:41:28;4.97;;;2.50;;
53253;SDS011;39148;53.332;6.922;2023-02-28T03:43:58;5.95;;;2.30;;
53253;SDS011;39148;53.332;6.922;2023-02-28T03:46:26;4.57;;;2.42;;
53253;SDS011;39148;53.332;6.922;2023-02-28T03:49:15;6.10;;;2.58;;
53253;SDS011;39148;53.332;6.922;2023-02-28T03:51:42;5.72;;;2.40;;
53253;SDS011;39148;53.332;6.922;2023-02-28T03:54:15;5.60;;;2.50;;
53253;SDS011;39148;53.332;6.922;2023-02-28T03:59:28;5.63;;;2.75;;
53253;SDS011;39148;53.332;6.922;2023-02-28T04:01:55;4.57;;;2.30;;
53253;SDS011;39148;53.332;6.922;2023-02-28T04:04:23;5.55;;;2.60;;
53253;SDS011;39148;53.332;6.922;2023-02-28T04:06:50;5.72;;;2.58;;
53253;SDS011;39148;53.332;6.922;2023-02-28T04:09:16;6.07;;;2.85;;
53253;SDS011;39148;53.332;6.922;2023-02-28T04:11:48;5.00;;;2.67;;
53253;SDS011;39148;53.332;6.922;2023-02-28T04:14:20;5.00;;;2.45;;
53253;SDS011;39148;53.332;6.922;2023-02-28T04:16:47;5.20;;;2.92;;
53253;SDS011;39148;53.332;6.922;2023-02-28T04:19:13;5.68;;;3.08;;
53253;SDS011;39148;53.332;6.922;2023-02-28T04:21:43;5.50;;;2.60;;
53253;SDS011;39148;53.332;6.922;2023-02-28T04:24:11;5.15;;;2.50;;
53253;SDS011;39148;53.332;6.922;2023-02-28T04:26:45;4.80;;;2.50;;
53253;SDS011;39148;53.332;6.922;2023-02-28T04:29:12;4.87;;;2.60;;
53253;SDS011;39148;53.332;6.922;2023-02-28T04:31:38;4.53;;;2.40;;
53253;SDS011;39148;53.332;6.922;2023-02-28T04:34:04;4.68;;;2.40;;
53253;SDS011;39148;53.332;6.922;2023-02-28T04:36:30;4.50;;;2.70;;
53253;SDS011;39148;53.332;6.922;2023-02-28T04:38:56;4.60;;;2.50;;
53253;SDS011;39148;53.332;6.922;2023-02-28T04:41:23;5.22;;;2.60;;
53253;SDS011;39148;53.332;6.922;2023-02-28T04:43:50;3.70;;;2.40;;
53253;SDS011;39148;53.332;6.922;2023-02-28T04:46:16;5.65;;;2.47;;
53253;SDS011;39148;53.332;6.922;2023-02-28T04:48:45;5.22;;;2.35;;
53253;SDS011;39148;53.332;6.922;2023-02-28T04:51:11;4.70;;;2.65;;
53253;SDS011;39148;53.332;6.922;2023-02-28T04:53:38;7.07;;;2.45;;
53253;SDS011;39148;53.332;6.922;2023-02-28T04:56:05;6.65;;;2.65;;
53253;SDS011;39148;53.332;6.922;2023-02-28T04:58:32;5.13;;;2.42;;
53253;SDS011;39148;53.332;6.922;2023-02-28T05:01:05;4.50;;;2.60;;
53253;SDS011;39148;53.332;6.922;2023-02-28T05:03:38;4.43;;;2.20;;
53253;SDS011;39148;53.332;6.922;2023-02-28T05:06:06;4.35;;;2.30;;
53253;SDS011;39148;53.332;6.922;2023-02-28T05:08:33;4.38;;;2.55;;
53253;SDS011;39148;53.332;6.922;2023-02-28T05:10:59;4.95;;;2.20;;
53253;SDS011;39148;53.332;6.922;2023-02-28T05:13:28;3.85;;;2.25;;
53253;SDS011;39148;53.332;6.922;2023-02-28T05:15:55;3.67;;;2.28;;
53253;SDS011;39148;53.332;6.922;2023-02-28T05:18:21;4.88;;;2.20;;
53253;SDS011;39148;53.332;6.922;2023-02-28T05:20:47;4.45;;;2.17;;
53253;SDS011;39148;53.332;6.922;2023-02-28T05:23:14;4.28;;;2.38;;
53253;SDS011;39148;53.332;6.922;2023-02-28T05:25:40;4.70;;;2.25;;
53253;SDS011;39148;53.332;6.922;2023-02-28T05:28:07;5.05;;;2.50;;
53253;SDS011;39148;53.332;6.922;2023-02-28T05:30:33;4.35;;;1.90;;
53253;SDS011;39148;53.332;6.922;2023-02-28T05:32:59;3.90;;;2.10;;
53253;SDS011;39148;53.332;6.922;2023-02-28T05:35:25;3.33;;;2.00;;
53253;SDS011;39148;53.332;6.922;2023-02-28T05:37:51;4.50;;;2.20;;
53253;SDS011;39148;53.332;6.922;2023-02-28T05:40:18;3.95;;;2.22;;
53253;SDS011;39148;53.332;6.922;2023-02-28T05:42:47;5.15;;;2.50;;
53253;SDS011;39148;53.332;6.922;2023-02-28T05:45:14;3.70;;;2.20;;
53253;SDS011;39148;53.332;6.922;2023-02-28T05:47:40;4.25;;;2.35;;
53253;SDS011;39148;53.332;6.922;2023-02-28T05:50:06;3.85;;;2.10;;
53253;SDS011;39148;53.332;6.922;2023-02-28T05:52:34;4.57;;;2.10;;
53253;SDS011;39148;53.332;6.922;2023-02-28T05:55:00;3.35;;;1.95;;
53253;SDS011;39148;53.332;6.922;2023-02-28T05:57:26;4.47;;;2.50;;
53253;SDS011;39148;53.332;6.922;2023-02-28T05:59:52;4.13;;;2.55;;
53253;SDS011;39148;53.332;6.922;2023-02-28T06:02:18;4.90;;;2.40;;
53253;SDS011;39148;53.332;6.922;2023-02-28T06:04:44;4.05;;;2.20;;
53253;SDS011;39148;53.332;6.922;2023-02-28T06:07:10;4.10;;;2.15;;
53253;SDS011;39148;53.332;6.922;2023-02-28T06:09:37;4.35;;;2.22;;
53253;SDS011;39148;53.332;6.922;2023-02-28T06:12:04;5.72;;;2.17;;
53253;SDS011;39148;53.332;6.922;2023-02-28T06:14:31;3.78;;;2.22;;
53253;SDS011;39148;53.332;6.922;2023-02-28T06:16:57;4.40;;;2.40;;
53253;SDS011;39148;53.332;6.922;2023-02-28T06:19:24;4.68;;;2.50;;
53253;SDS011;39148;53.332;6.922;2023-02-28T06:21:54;4.28;;;2.30;;
53253;SDS011;39148;53.332;6.922;2023-02-28T06:24:20;4.10;;;2.25;;
53253;SDS011;39148;53.332;6.922;2023-02-28T06:26:47;4.30;;;2.40;;
53253;SDS011;39148;53.332;6.922;2023-02-28T06:29:13;4.10;;;2.15;;
53253;SDS011;39148;53.332;6.922;2023-02-28T06:31:43;4.55;;;2.30;;
53253;SDS011;39148;53.332;6.922;2023-02-28T06:34:10;5.07;;;2.40;;
53253;SDS011;39148;53.332;6.922;2023-02-28T06:36:37;3.70;;;2.13;;
53253;SDS011;39148;53.332;6.922;2023-02-28T06:39:03;4.50;;;2.60;;
53253;SDS011;39148;53.332;6.922;2023-02-28T06:41:30;5.32;;;2.25;;
53253;SDS011;39148;53.332;6.922;2023-02-28T06:43:56;6.40;;;2.67;;
53253;SDS011;39148;53.332;6.922;2023-02-28T06:46:22;5.00;;;2.70;;
53253;SDS011;39148;53.332;6.922;2023-02-28T06:48:48;5.35;;;3.00;;
53253;SDS011;39148;53.332;6.922;2023-02-28T06:51:18;5.28;;;2.67;;
53253;SDS011;39148;53.332;6.922;2023-02-28T06:53:49;5.28;;;2.78;;
53253;SDS011;39148;53.332;6.922;2023-02-28T06:56:16;5.70;;;3.03;;
53253;SDS011;39148;53.332;6.922;2023-02-28T06:58:45;6.50;;;3.58;;
53253;SDS011;39148;53.332;6.922;2023-02-28T07:01:14;5.38;;;3.03;;
53253;SDS011;39148;53.332;6.922;2023-02-28T07:03:41;5.53;;;3.40;;
53253;SDS011;39148;53.332;6.922;2023-02-28T07:06:07;7.43;;;3.92;;
53253;SDS011;39148;53.332;6.922;2023-02-28T07:08:33;6.25;;;3.40;;
53253;SDS011;39148;53.332;6.922;2023-02-28T07:11:00;5.75;;;3.40;;
53253;SDS011;39148;53.332;6.922;2023-02-28T07:13:27;6.53;;;3.58;;
53253;SDS011;39148;53.332;6.922;2023-02-28T07:15:53;6.50;;;3.50;;
53253;SDS011;39148;53.332;6.922;2023-02-28T07:18:19;7.18;;;3.70;;
53253;SDS011;39148;53.332;6.922;2023-02-28T07:20:45;6.38;;;3.83;;
53253;SDS011;39148;53.332;6.922;2023-02-28T07:23:11;6.68;;;4.10;;
53253;SDS011;39148;53.332;6.922;2023-02-28T07:25:38;6.13;;;3.58;;
53253;SDS011;39148;53.332;6.922;2023-02-28T07:28:04;7.38;;;3.78;;
53253;SDS011;39148;53.332;6.922;2023-02-28T07:30:30;7.55;;;3.90;;
53253;SDS011;39148;53.332;6.922;2023-02-28T07:32:56;6.43;;;4.13;;
53253;SDS011;39148;53.332;6.922;2023-02-28T07:35:22;7.82;;;3.78;;
53253;SDS011;39148;53.332;6.922;2023-02-28T07:37:48;8.32;;;4.78;;
53253;SDS011;39148;53.332;6.922;2023-02-28T07:40:16;7.88;;;4.28;;
53253;SDS011;39148;53.332;6.922;2023-02-28T07:42:43;6.95;;;3.90;;
53253;SDS011;39148;53.332;6.922;2023-02-28T07:45:10;6.75;;;3.72;;
53253;SDS011;39148;53.332;6.922;2023-02-28T07:47:39;6.72;;;4.00;;
53253;SDS011;39148;53.332;6.922;2023-02-28T07:50:07;8.13;;;4.20;;
53253;SDS011;39148;53.332;6.922;2023-02-28T07:52:34;7.60;;;4.25;;
53253;SDS011;39148;53.332;6.922;2023-02-28T07:55:01;6.65;;;3.88;;
53253;SDS011;39148;53.332;6.922;2023-02-28T07:57:27;7.03;;;3.92;;
53253;SDS011;39148;53.332;6.922;2023-02-28T07:59:54;6.88;;;4.15;;
53253;SDS011;39148;53.332;6.922;2023-02-28T08:02:19;6.85;;;4.05;;
53253;SDS011;39148;53.332;6.922;2023-02-28T08:04:45;7.85;;;4.75;;
53253;SDS011;39148;53.332;6.922;2023-02-28T08:07:13;6.43;;;3.95;;
53253;SDS011;39148;53.332;6.922;2023-02-28T08:09:39;7.07;;;4.00;;
53253;SDS011;39148;53.332;6.922;2023-02-28T08:12:06;6.40;;;4.00;;
53253;SDS011;39148;53.332;6.922;2023-02-28T08:14:32;7.95;;;4.50;;
53253;SDS011;39148;53.332;6.922;2023-02-28T08:16:58;7.05;;;4.60;;
53253;SDS011;39148;53.332;6.922;2023-02-28T08:19:24;5.93;;;4.25;;
53253;SDS011;39148;53.332;6.922;2023-02-28T08:21:50;6.93;;;4.00;;
53253;SDS011;39148;53.332;6.922;2023-02-28T08:24:16;6.53;;;4.22;;
53253;SDS011;39148;53.332;6.922;2023-02-28T08:26:43;6.82;;;4.55;;
53253;SDS011;39148;53.332;6.922;2023-02-28T08:29:09;7.97;;;4.13;;
53253;SDS011;39148;53.332;6.922;2023-02-28T08:31:35;6.82;;;4.10;;
53253;SDS011;39148;53.332;6.922;2023-02-28T08:34:05;6.88;;;3.90;;
53253;SDS011;39148;53.332;6.922;2023-02-28T08:36:31;7.30;;;4.20;;
53253;SDS011;39148;53.332;6.922;2023-02-28T08:38:57;6.78;;;4.15;;
53253;SDS011;39148;53.332;6.922;2023-02-28T08:41:24;6.53;;;3.97;;
53253;SDS011;39148;53.332;6.922;2023-02-28T08:43:51;7.05;;;4.30;;
53253;SDS011;39148;53.332;6.922;2023-02-28T08:46:17;6.75;;;4.35;;
53253;SDS011;39148;53.332;6.922;2023-02-28T08:48:43;7.35;;;4.45;;
53253;SDS011;39148;53.332;6.922;2023-02-28T08:51:10;8.98;;;4.63;;
53253;SDS011;39148;53.332;6.922;2023-02-28T08:53:37;7.95;;;4.68;;
53253;SDS011;39148;53.332;6.922;2023-02-28T08:56:05;6.97;;;4.70;;
53253;SDS011;39148;53.332;6.922;2023-02-28T08:58:32;8.15;;;5.00;;
53253;SDS011;39148;53.332;6.922;2023-02-28T09:00:59;7.13;;;4.10;;
53253;SDS011;39148;53.332;6.922;2023-02-28T09:03:25;7.13;;;4.20;;
53253;SDS011;39148;53.332;6.922;2023-02-28T09:05:55;7.90;;;4.15;;
53253;SDS011;39148;53.332;6.922;2023-02-28T09:08:22;7.07;;;4.07;;
53253;SDS011;39148;53.332;6.922;2023-02-28T09:10:48;7.32;;;4.20;;
53253;SDS011;39148;53.332;6.922;2023-02-28T09:13:15;6.47;;;4.28;;
53253;SDS011;39148;53.332;6.922;2023-02-28T09:15:41;7.60;;;4.72;;
53253;SDS011;39148;53.332;6.922;2023-02-28T09:18:07;7.15;;;4.50;;
53253;SDS011;39148;53.332;6.922;2023-02-28T09:20:33;8.40;;;4.43;;
53253;SDS011;39148;53.332;6.922;2023-02-28T09:22:59;8.40;;;5.20;;
53253;SDS011;39148;53.332;6.922;2023-02-28T09:25:25;6.57;;;4.47;;
53253;SDS011;39148;53.332;6.922;2023-02-28T09:27:51;9.48;;;5.05;;
53253;SDS011;39148;53.332;6.922;2023-02-28T09:30:17;6.93;;;4.38;;
53253;SDS011;39148;53.332;6.922;2023-02-28T09:32:44;7.70;;;4.65;;
53253;SDS011;39148;53.332;6.922;2023-02-28T09:35:17;7.22;;;4.75;;
53253;SDS011;39148;53.332;6.922;2023-02-28T09:37:43;7.70;;;4.43;;
53253;SDS011;39148;53.332;6.922;2023-02-28T09:40:10;8.63;;;4.78;;
53253;SDS011;39148;53.332;6.922;2023-02-28T09:42:37;9.95;;;5.18;;
53253;SDS011;39148;53.332;6.922;2023-02-28T09:45:05;7.28;;;4.95;;
53253;SDS011;39148;53.332;6.922;2023-02-28T09:47:34;8.02;;;5.47;;
53253;SDS011;39148;53.332;6.922;2023-02-28T09:50:19;7.50;;;5.03;;
53253;SDS011;39148;53.332;6.922;2023-02-28T09:52:46;7.95;;;5.50;;
53253;SDS011;39148;53.332;6.922;2023-02-28T09:57:41;8.23;;;5.20;;
53253;SDS011;39148;53.332;6.922;2023-02-28T10:00:13;7.65;;;4.90;;
53253;SDS011;39148;53.332;6.922;2023-02-28T10:02:46;8.05;;;5.22;;
53253;SDS011;39148;53.332;6.922;2023-02-28T10:05:15;7.70;;;5.13;;
53253;SDS011;39148;53.332;6.922;2023-02-28T10:10:17;8.15;;;5.25;;
53253;SDS011;39148;53.332;6.922;2023-02-28T10:12:46;7.68;;;4.95;;
53253;SDS011;39148;53.332;6.922;2023-02-28T10:15:14;8.00;;;5.25;;
53253;SDS011;39148;53.332;6.922;2023-02-28T10:17:41;7.15;;;5.10;;
53253;SDS011;39148;53.332;6.922;2023-02-28T10:20:12;8.30;;;4.85;;
53253;SDS011;39148;53.332;6.922;2023-02-28T10:22:42;8.15;;;4.90;;
53253;SDS011;39148;53.332;6.922;2023-02-28T10:25:19;7.63;;;4.95;;
53253;SDS011;39148;53.332;6.922;2023-02-28T10:27:45;7.03;;;4.68;;
53253;SDS011;39148;53.332;6.922;2023-02-28T10:30:12;7.97;;;5.28;;
53253;SDS011;39148;53.332;6.922;2023-02-28T10:32:39;8.85;;;5.20;;
53253;SDS011;39148;53.332;6.922;2023-02-28T10:37:37;9.00;;;5.00;;
53253;SDS011;39148;53.332;6.922;2023-02-28T10:40:04;9.90;;;5.22;;
53253;SDS011;39148;53.332;6.922;2023-02-28T10:42:31;8.60;;;5.10;;
53253;SDS011;39148;53.332;6.922;2023-02-28T10:48:04;8.30;;;5.40;;
53253;SDS011;39148;53.332;6.922;2023-02-28T11:01:12;9.80;;;4.95;;
53253;SDS011;39148;53.332;6.922;2023-02-28T11:03:39;8.77;;;5.13;;
53253;SDS011;39148;53.332;6.922;2023-02-28T11:06:06;7.10;;;4.60;;
53253;SDS011;39148;53.332;6.922;2023-02-28T11:08:45;7.07;;;4.70;;
53253;SDS011;39148;53.332;6.922;2023-02-28T11:11:16;7.93;;;5.00;;
53253;SDS011;39148;53.332;6.922;2023-02-28T11:13:43;7.38;;;4.53;;
53253;SDS011;39148;53.332;6.922;2023-02-28T11:16:10;7.97;;;5.15;;
53253;SDS011;39148;53.332;6.922;2023-02-28T11:21:06;8.30;;;4.95;;
53253;SDS011;39148;53.332;6.922;2023-02-28T11:23:33;7.35;;;4.60;;
53253;SDS011;39148;53.332;6.922;2023-02-28T11:26:02;8.77;;;5.20;;
53253;SDS011;39148;53.332;6.922;2023-02-28T11:28:34;6.93;;;4.45;;
53253;SDS011;39148;53.332;6.922;2023-02-28T11:36:19;7.88;;;4.97;;
53253;SDS011;39148;53.332;6.922;2023-02-28T11:38:45;8.60;;;5.40;;
53253;SDS011;39148;53.332;6.922;2023-02-28T11:41:19;7.60;;;4.57;;
53253;SDS011;39148;53.332;6.922;2023-02-28T11:46:47;6.78;;;4.85;;
53253;SDS011;39148;53.332;6.922;2023-02-28T11:51:47;6.70;;;4.95;;
53253;SDS011;39148;53.332;6.922;2023-02-28T11:56:53;9.52;;;5.13;;
53253;SDS011;39148;53.332;6.922;2023-02-28T12:07:22;7.15;;;4.43;;
53253;SDS011;39148;53.332;6.922;2023-02-28T12:17:55;6.90;;;4.05;;
53253;SDS011;39148;53.332;6.922;2023-02-28T12:20:53;7.47;;;4.20;;
53253;SDS011;39148;53.332;6.922;2023-02-28T12:26:02;8.18;;;4.47;;
53253;SDS011;39148;53.332;6.922;2023-02-28T12:28:36;6.30;;;3.95;;
53253;SDS011;39148;53.332;6.922;2023-02-28T12:33:40;6.82;;;4.20;;
53253;SDS011;39148;53.332;6.922;2023-02-28T12:36:11;7.03;;;4.13;;
53253;SDS011;39148;53.332;6.922;2023-02-28T12:43:44;6.55;;;4.05;;
53253;SDS011;39148;53.332;6.922;2023-02-28T12:46:58;7.32;;;4.20;;
53253;SDS011;39148;53.332;6.922;2023-02-28T12:49:13;6.32;;;3.78;;
53253;SDS011;39148;53.332;6.922;2023-02-28T12:51:44;6.28;;;3.70;;
53253;SDS011;39148;53.332;6.922;2023-02-28T13:09:56;6.05;;;3.40;;
53253;SDS011;39148;53.332;6.922;2023-02-28T13:12:23;5.10;;;3.30;;
53253;SDS011;39148;53.332;6.922;2023-02-28T13:14:49;5.55;;;2.95;;
53253;SDS011;39148;53.332;6.922;2023-02-28T13:17:20;5.95;;;3.10;;
53253;SDS011;39148;53.332;6.922;2023-02-28T13:24:53;5.45;;;3.40;;
53253;SDS011;39148;53.332;6.922;2023-02-28T13:27:22;5.40;;;3.45;;
53253;SDS011;39148;53.332;6.922;2023-02-28T13:29:50;6.63;;;3.78;;
53253;SDS011;39148;53.332;6.922;2023-02-28T13:32:25;6.40;;;3.45;;
53253;SDS011;39148;53.332;6.922;2023-02-28T13:39:50;5.32;;;2.97;;
53253;SDS011;39148;53.332;6.922;2023-02-28T13:47:31;6.05;;;3.10;;
53253;SDS011;39148;53.332;6.922;2023-02-28T13:55:24;6.13;;;3.45;;
53253;SDS011;39148;53.332;6.922;2023-02-28T14:00:44;6.40;;;3.45;;
53253;SDS011;39148;53.332;6.922;2023-02-28T14:06:27;5.75;;;3.25;;
53253;SDS011;39148;53.332;6.922;2023-02-28T14:08:56;6.03;;;3.40;;
53253;SDS011;39148;53.332;6.922;2023-02-28T14:11:37;5.82;;;2.97;;
53253;SDS011;39148;53.332;6.922;2023-02-28T14:14:03;4.78;;;2.75;;
53253;SDS011;39148;53.332;6.922;2023-02-28T14:16:46;5.30;;;2.92;;
53253;SDS011;39148;53.332;6.922;2023-02-28T14:19:14;5.70;;;3.00;;
53253;SDS011;39148;53.332;6.922;2023-02-28T14:24:42;5.78;;;3.42;;
53253;SDS011;39148;53.332;6.922;2023-02-28T14:38:19;5.97;;;3.15;;
53253;SDS011;39148;53.332;6.922;2023-02-28T14:40:46;5.32;;;3.15;;
53253;SDS011;39148;53.332;6.922;2023-02-28T14:43:24;6.15;;;3.35;;
53253;SDS011;39148;53.332;6.922;2023-02-28T14:45:51;5.95;;;3.30;;
53253;SDS011;39148;53.332;6.922;2023-02-28T14:48:23;6.10;;;3.30;;
53253;SDS011;39148;53.332;6.922;2023-02-28T14:50:52;6.68;;;3.55;;
53253;SDS011;39148;53.332;6.922;2023-02-28T14:53:19;5.35;;;3.00;;
53253;SDS011;39148;53.332;6.922;2023-02-28T14:55:47;6.03;;;3.83;;
53253;SDS011;39148;53.332;6.922;2023-02-28T14:58:21;7.60;;;3.75;;
53253;SDS011;39148;53.332;6.922;2023-02-28T15:00:48;5.82;;;3.63;;
53253;SDS011;39148;53.332;6.922;2023-02-28T15:05:59;7.20;;;3.92;;
53253;SDS011;39148;53.332;6.922;2023-02-28T15:08:27;5.97;;;3.92;;
53253;SDS011;39148;53.332;6.922;2023-02-28T15:10:58;6.85;;;3.90;;
53253;SDS011;39148;53.332;6.922;2023-02-28T15:13:45;6.78;;;3.53;;
53253;SDS011;39148;53.332;6.922;2023-02-28T15:21:35;6.95;;;3.83;;
53253;SDS011;39148;53.332;6.922;2023-02-28T15:24:05;6.30;;;3.80;;
53253;SDS011;39148;53.332;6.922;2023-02-28T15:26:34;7.65;;;3.80;;
53253;SDS011;39148;53.332;6.922;2023-02-28T15:31:35;6.78;;;3.40;;
53253;SDS011;39148;53.332;6.922;2023-02-28T15:34:06;7.35;;;3.88;;
53253;SDS011;39148;53.332;6.922;2023-02-28T15:36:33;6.47;;;3.90;;
53253;SDS011;39148;53.332;6.922;2023-02-28T15:39:03;6.57;;;3.90;;
53253;SDS011;39148;53.332;6.922;2023-02-28T15:41:43;6.30;;;3.88;;
53253;SDS011;39148;53.332;6.922;2023-02-28T15:47:05;6.47;;;4.00;;
53253;SDS011;39148;53.332;6.922;2023-02-28T15:52:27;6.70;;;3.75;;
53253;SDS011;39148;53.332;6.922;2023-02-28T15:54:54;5.60;;;3.42;;
53253;SDS011;39148;53.332;6.922;2023-02-28T15:57:21;7.13;;;3.78;;
53253;SDS011;39148;53.332;6.922;2023-02-28T15:59:51;6.10;;;3.90;;
53253;SDS011;39148;53.332;6.922;2023-02-28T16:02:41;6.00;;;3.72;;
53253;SDS011;39148;53.332;6.922;2023-02-28T16:07:32;6.00;;;3.95;;
53253;SDS011;39148;53.332;6.922;2023-02-28T16:09:59;8.32;;;3.92;;
53253;SDS011;39148;53.332;6.922;2023-02-28T16:12:29;6.22;;;3.30;;
53253;SDS011;39148;53.332;6.922;2023-02-28T16:14:57;8.70;;;4.45;;
53253;SDS011;39148;53.332;6.922;2023-02-28T16:17:28;6.20;;;3.72;;
53253;SDS011;39148;53.332;6.922;2023-02-28T16:19:57;4.97;;;3.30;;
53253;SDS011;39148;53.332;6.922;2023-02-28T16:22:23;5.78;;;3.38;;
53253;SDS011;39148;53.332;6.922;2023-02-28T16:24:49;6.13;;;3.65;;
53253;SDS011;39148;53.332;6.922;2023-02-28T16:27:24;6.20;;;3.58;;
53253;SDS011;39148;53.332;6.922;2023-02-28T16:29:53;6.05;;;3.75;;
53253;SDS011;39148;53.332;6.922;2023-02-28T16:32:19;6.80;;;3.33;;
53253;SDS011;39148;53.332;6.922;2023-02-28T16:34:45;6.78;;;3.40;;
53253;SDS011;39148;53.332;6.922;2023-02-28T16:37:12;5.78;;;3.50;;
53253;SDS011;39148;53.332;6.922;2023-02-28T16:39:39;5.68;;;3.30;;
53253;SDS011;39148;53.332;6.922;2023-02-28T16:42:05;7.05;;;3.92;;
53253;SDS011;39148;53.332;6.922;2023-02-28T16:44:33;5.95;;;3.75;;
53253;SDS011;39148;53.332;6.922;2023-02-28T16:47:01;5.18;;;3.28;;
53253;SDS011;39148;53.332;6.922;2023-02-28T16:49:28;5.75;;;3.40;;
53253;SDS011;39148;53.332;6.922;2023-02-28T16:51:54;5.68;;;3.40;;
53253;SDS011;39148;53.332;6.922;2023-02-28T16:54:20;6.55;;;3.38;;
53253;SDS011;39148;53.332;6.922;2023-02-28T16:56:47;8.13;;;3.78;;
53253;SDS011;39148;53.332;6.922;2023-02-28T16:59:13;6.90;;;3.33;;
53253;SDS011;39148;53.332;6.922;2023-02-28T17:01:41;5.78;;;3.30;;
53253;SDS011;39148;53.332;6.922;2023-02-28T17:04:08;5.78;;;3.60;;
53253;SDS011;39148;53.332;6.922;2023-02-28T17:06:34;5.70;;;3.38;;
53253;SDS011;39148;53.332;6.922;2023-02-28T17:09:00;7.43;;;3.72;;
53253;SDS011;39148;53.332;6.922;2023-02-28T17:11:26;5.10;;;3.30;;
53253;SDS011;39148;53.332;6.922;2023-02-28T17:13:52;6.45;;;3.30;;
53253;SDS011;39148;53.332;6.922;2023-02-28T17:16:31;4.63;;;3.03;;
53253;SDS011;39148;53.332;6.922;2023-02-28T17:18:59;5.05;;;2.60;;
53253;SDS011;39148;53.332;6.922;2023-02-28T17:21:28;5.57;;;3.30;;
53253;SDS011;39148;53.332;6.922;2023-02-28T17:23:54;5.30;;;3.03;;
53253;SDS011;39148;53.332;6.922;2023-02-28T17:26:21;4.35;;;2.92;;
53253;SDS011;39148;53.332;6.922;2023-02-28T17:28:50;5.20;;;2.97;;
53253;SDS011;39148;53.332;6.922;2023-02-28T17:31:16;5.22;;;3.10;;
53253;SDS011;39148;53.332;6.922;2023-02-28T17:33:42;5.63;;;3.15;;
53253;SDS011;39148;53.332;6.922;2023-02-28T17:36:20;6.72;;;3.53;;
53253;SDS011;39148;53.332;6.922;2023-02-28T17:38:48;5.85;;;3.25;;